Sakaide Maru — 3EYR6 — position and weather

sailwx.info

Track history (hours):
 
Tides and Currents Weather Stations Pressure Air Temp Water Temp Dewpoint Dewpoint Depression Visibility Wind Speed Wind Dir Waves Ship Positions

Sakaide Maru

Last reported at 2015-Jan-19 07:15 UTC. Time now 2015-Jan-28 16:21 UTC.
Position N 33°60' E 134°58'.
Warning: this ship's position is 9 days out of date.

Length 255 m; draft 8.1 m.

Type: Cargo ship. MMSI: 354898000.

Date/timePositionNaut miles runAvg speedWind from/ knotsBaromVisibWave heightAir tempDewpointWater temp
2015-Jan-19 07:15N 33°60' E 134°58'1014.3
2015-Jan-19 06:33N 34°09' E 134°58'1312.7
2015-Jan-19 05:32N 34°22' E 135°01'1212.3
2015-Jan-19 04:33N 34°34' E 135°06'1111.5
2015-Jan-19 03:33N 34°34' E 134°52'1514.5
2015-Jan-19 02:33N 34°29' E 134°36'  
2015-Jan-12 01:27N 34°34' E 134°50'1111.2
2015-Jan-12 00:29N 34°37' E 135°02'6 6.1
2015-Jan-11 23:33N 34°34' E 135°08'1111.4
2015-Jan-11 22:32N 34°23' E 135°03'1111.4
2015-Jan-11 21:33N 34°12' E 134°60'7 7.1
2015-Jan-11 20:33N 34°05' E 134°59'7 7.2
2015-Jan-11 19:33N 33°58' E 134°59'  
Track history (hours):
 
Tides and Currents Weather Stations Pressure Air Temp Water Temp Dewpoint Dewpoint Depression Visibility Wind Speed Wind Dir Waves Ship Positions

Sakaide Maru

Last reported at 2015-Jan-19 07:15 UTC. Time now 2015-Jan-28 16:21 UTC.
Position N 33°60' E 134°58'.
Warning: this ship's position is 9 days out of date.

Length 255 m; draft 8.1 m.

Type: Cargo ship. MMSI: 354898000.

Date/timePositionNaut miles runAvg speedWind from/ knotsBaromVisibWave heightAir tempDewpointWater temp
2015-Jan-19 07:15N 33°60' E 134°58'1014.3
2015-Jan-19 06:33N 34°09' E 134°58'1312.7
2015-Jan-19 05:32N 34°22' E 135°01'1212.3
2015-Jan-19 04:33N 34°34' E 135°06'1111.5
2015-Jan-19 03:33N 34°34' E 134°52'1514.5
2015-Jan-19 02:33N 34°29' E 134°36'  
2015-Jan-12 01:27N 34°34' E 134°50'1111.2
2015-Jan-12 00:29N 34°37' E 135°02'6 6.1
2015-Jan-11 23:33N 34°34' E 135°08'1111.4
2015-Jan-11 22:32N 34°23' E 135°03'1111.4
2015-Jan-11 21:33N 34°12' E 134°60'7 7.1
2015-Jan-11 20:33N 34°05' E 134°59'7 7.2
2015-Jan-11 19:33N 33°58' E 134°59'  

Dump ship's entire track history